sensor_id;sensor_type;location;lat;lon;timestamp;temperature;humidity
1411;DHT22;700;51.906;8.404;2022-12-18T00:01:37;-4.60;99.90
1411;DHT22;700;51.906;8.404;2022-12-18T00:06:40;-4.80;99.90
1411;DHT22;700;51.906;8.404;2022-12-18T00:11:41;-5.20;99.90
1411;DHT22;700;51.906;8.404;2022-12-18T00:16:46;-5.40;99.90
1411;DHT22;700;51.906;8.404;2022-12-18T00:21:47;-5.20;99.90
1411;DHT22;700;51.906;8.404;2022-12-18T00:26:50;-5.00;99.90
1411;DHT22;700;51.906;8.404;2022-12-18T00:31:50;-5.10;99.90
1411;DHT22;700;51.906;8.404;2022-12-18T00:36:51;-5.10;99.90
1411;DHT22;700;51.906;8.404;2022-12-18T00:41:52;-5.30;99.90
1411;DHT22;700;51.906;8.404;2022-12-18T00:47:13;-5.20;99.90
1411;DHT22;700;51.906;8.404;2022-12-18T00:52:14;-5.10;99.90
1411;DHT22;700;51.906;8.404;2022-12-18T00:57:14;-5.00;99.90
1411;DHT22;700;51.906;8.404;2022-12-18T01:02:20;-5.00;99.90
1411;DHT22;700;51.906;8.404;2022-12-18T01:07:23;-4.80;99.90
1411;DHT22;700;51.906;8.404;2022-12-18T01:12:25;-4.80;99.90
1411;DHT22;700;51.906;8.404;2022-12-18T01:17:28;-4.60;99.90
1411;DHT22;700;51.906;8.404;2022-12-18T01:22:29;-4.70;99.90
1411;DHT22;700;51.906;8.404;2022-12-18T01:27:30;-5.00;99.90
1411;DHT22;700;51.906;8.404;2022-12-18T01:32:32;-5.00;99.90
1411;DHT22;700;51.906;8.404;2022-12-18T01:37:32;-5.00;99.90
1411;DHT22;700;51.906;8.404;2022-12-18T01:42:35;-5.00;99.90
1411;DHT22;700;51.906;8.404;2022-12-18T01:52:37;-4.60;99.90
1411;DHT22;700;51.906;8.404;2022-12-18T01:57:39;-4.70;99.90
1411;DHT22;700;51.906;8.404;2022-12-18T02:02:41;-4.70;99.90
1411;DHT22;700;51.906;8.404;2022-12-18T02:18:32;-4.90;99.90
1411;DHT22;700;51.906;8.404;2022-12-18T02:34:04;-4.80;99.90
1411;DHT22;700;51.906;8.404;2022-12-18T02:39:11;-4.70;99.90
1411;DHT22;700;51.906;8.404;2022-12-18T02:44:15;-4.70;99.90
1411;DHT22;700;51.906;8.404;2022-12-18T02:49:26;-4.90;99.90
1411;DHT22;700;51.906;8.404;2022-12-18T03:10:27;-4.80;99.90
1411;DHT22;700;51.906;8.404;2022-12-18T03:15:31;-4.80;99.90
1411;DHT22;700;51.906;8.404;2022-12-18T03:20:36;-4.90;99.90
1411;DHT22;700;51.906;8.404;2022-12-18T03:25:42;-4.80;99.90
1411;DHT22;700;51.906;8.404;2022-12-18T03:30:46;-4.90;99.90
1411;DHT22;700;51.906;8.404;2022-12-18T03:35:50;-5.10;99.90
1411;DHT22;700;51.906;8.404;2022-12-18T03:57:03;-5.00;99.90
1411;DHT22;700;51.906;8.404;2022-12-18T04:02:06;-4.90;99.90
1411;DHT22;700;51.906;8.404;2022-12-18T04:07:07;-4.80;99.90
1411;DHT22;700;51.906;8.404;2022-12-18T04:12:13;-4.80;99.90
1411;DHT22;700;51.906;8.404;2022-12-18T04:17:14;-4.90;99.90
1411;DHT22;700;51.906;8.404;2022-12-18T04:22:20;-5.10;99.90
1411;DHT22;700;51.906;8.404;2022-12-18T04:27:22;-5.00;99.90
1411;DHT22;700;51.906;8.404;2022-12-18T04:32:23;-5.20;99.90
1411;DHT22;700;51.906;8.404;2022-12-18T04:37:24;-5.00;99.90
1411;DHT22;700;51.906;8.404;2022-12-18T04:42:24;-5.10;99.90
1411;DHT22;700;51.906;8.404;2022-12-18T04:47:25;-5.00;99.90
1411;DHT22;700;51.906;8.404;2022-12-18T04:52:33;-5.00;99.90
1411;DHT22;700;51.906;8.404;2022-12-18T04:57:38;-4.80;99.90
1411;DHT22;700;51.906;8.404;2022-12-18T05:02:39;-4.80;99.90
1411;DHT22;700;51.906;8.404;2022-12-18T05:07:42;-5.10;99.90
1411;DHT22;700;51.906;8.404;2022-12-18T05:12:45;-4.80;99.90
1411;DHT22;700;51.906;8.404;2022-12-18T05:18:01;-4.80;99.90
1411;DHT22;700;51.906;8.404;2022-12-18T05:23:04;-4.50;99.90
1411;DHT22;700;51.906;8.404;2022-12-18T05:28:04;-4.30;99.90
1411;DHT22;700;51.906;8.404;2022-12-18T05:33:09;-4.40;99.90
1411;DHT22;700;51.906;8.404;2022-12-18T05:38:10;-4.50;99.90
1411;DHT22;700;51.906;8.404;2022-12-18T05:43:11;-4.30;99.90
1411;DHT22;700;51.906;8.404;2022-12-18T05:48:14;-4.40;99.90
1411;DHT22;700;51.906;8.404;2022-12-18T05:53:17;-4.50;99.90
1411;DHT22;700;51.906;8.404;2022-12-18T05:58:18;-4.40;99.90
1411;DHT22;700;51.906;8.404;2022-12-18T06:03:21;-4.40;99.90
1411;DHT22;700;51.906;8.404;2022-12-18T06:08:21;-4.30;99.90
1411;DHT22;700;51.906;8.404;2022-12-18T06:13:22;-4.30;99.90
1411;DHT22;700;51.906;8.404;2022-12-18T06:18:23;-4.30;99.90
1411;DHT22;700;51.906;8.404;2022-12-18T06:23:24;-4.10;99.90
1411;DHT22;700;51.906;8.404;2022-12-18T06:28:24;-4.20;99.90
1411;DHT22;700;51.906;8.404;2022-12-18T06:33:26;-4.00;99.90
1411;DHT22;700;51.906;8.404;2022-12-18T06:38:28;-4.10;99.90
1411;DHT22;700;51.906;8.404;2022-12-18T06:43:29;-4.30;99.90
1411;DHT22;700;51.906;8.404;2022-12-18T06:48:29;-4.20;99.90
1411;DHT22;700;51.906;8.404;2022-12-18T06:53:35;-3.90;99.90
1411;DHT22;700;51.906;8.404;2022-12-18T06:58:39;-3.90;99.90
1411;DHT22;700;51.906;8.404;2022-12-18T07:03:40;-3.80;99.90
1411;DHT22;700;51.906;8.404;2022-12-18T07:08:41;-3.70;99.90
1411;DHT22;700;51.906;8.404;2022-12-18T07:13:42;-3.60;99.90
1411;DHT22;700;51.906;8.404;2022-12-18T07:18:44;-3.80;99.90
1411;DHT22;700;51.906;8.404;2022-12-18T07:23:47;-4.00;99.90
1411;DHT22;700;51.906;8.404;2022-12-18T07:28:48;-3.80;99.90
1411;DHT22;700;51.906;8.404;2022-12-18T07:33:50;-3.70;99.90
1411;DHT22;700;51.906;8.404;2022-12-18T07:38:51;-3.30;99.90
1411;DHT22;700;51.906;8.404;2022-12-18T07:43:53;-3.20;99.90
1411;DHT22;700;51.906;8.404;2022-12-18T07:48:53;-3.10;99.90
1411;DHT22;700;51.906;8.404;2022-12-18T07:53:56;-3.10;99.90
1411;DHT22;700;51.906;8.404;2022-12-18T07:59:02;-3.00;99.90
1411;DHT22;700;51.906;8.404;2022-12-18T08:04:03;-2.80;99.90
1411;DHT22;700;51.906;8.404;2022-12-18T08:09:03;-2.60;99.90
1411;DHT22;700;51.906;8.404;2022-12-18T08:14:08;-2.60;99.90
1411;DHT22;700;51.906;8.404;2022-12-18T08:19:11;-2.30;99.90
1411;DHT22;700;51.906;8.404;2022-12-18T08:24:12;-1.80;99.90
1411;DHT22;700;51.906;8.404;2022-12-18T08:29:15;-1.20;99.90
1411;DHT22;700;51.906;8.404;2022-12-18T08:34:20;-0.70;99.90
1411;DHT22;700;51.906;8.404;2022-12-18T08:39:23;-0.50;99.90
1411;DHT22;700;51.906;8.404;2022-12-18T08:44:26;0.90;99.90
1411;DHT22;700;51.906;8.404;2022-12-18T08:49:49;2.40;99.90
1411;DHT22;700;51.906;8.404;2022-12-18T08:54:54;3.00;99.90
1411;DHT22;700;51.906;8.404;2022-12-18T08:59:55;3.40;99.90
1411;DHT22;700;51.906;8.404;2022-12-18T09:04:55;3.30;99.90
1411;DHT22;700;51.906;8.404;2022-12-18T09:09:56;4.10;99.90
1411;DHT22;700;51.906;8.404;2022-12-18T09:14:59;3.30;99.90
1411;DHT22;700;51.906;8.404;2022-12-18T09:20:00;3.70;99.90
1411;DHT22;700;51.906;8.404;2022-12-18T09:25:08;3.40;99.90
1411;DHT22;700;51.906;8.404;2022-12-18T09:30:11;3.30;99.90
1411;DHT22;700;51.906;8.404;2022-12-18T09:35:11;3.80;99.90
1411;DHT22;700;51.906;8.404;2022-12-18T09:40:21;5.40;99.90
1411;DHT22;700;51.906;8.404;2022-12-18T09:45:22;6.60;99.90
1411;DHT22;700;51.906;8.404;2022-12-18T09:50:28;6.00;99.90
1411;DHT22;700;51.906;8.404;2022-12-18T09:55:31;6.10;99.90
1411;DHT22;700;51.906;8.404;2022-12-18T10:00:34;5.40;99.90
1411;DHT22;700;51.906;8.404;2022-12-18T10:10:53;5.90;99.90
1411;DHT22;700;51.906;8.404;2022-12-18T10:16:17;7.90;99.90
1411;DHT22;700;51.906;8.404;2022-12-18T10:21:38;9.40;99.50
1411;DHT22;700;51.906;8.404;2022-12-18T10:26:41;9.60;95.00
1411;DHT22;700;51.906;8.404;2022-12-18T10:31:45;10.10;92.70
1411;DHT22;700;51.906;8.404;2022-12-18T10:36:47;10.00;93.20
1411;DHT22;700;51.906;8.404;2022-12-18T10:41:52;10.20;91.10
1411;DHT22;700;51.906;8.404;2022-12-18T10:47:14;11.10;92.50
1411;DHT22;700;51.906;8.404;2022-12-18T10:52:19;10.10;87.30
1411;DHT22;700;51.906;8.404;2022-12-18T10:57:41;8.80;88.20
1411;DHT22;700;51.906;8.404;2022-12-18T11:02:42;9.30;91.50
1411;DHT22;700;51.906;8.404;2022-12-18T11:07:48;7.70;92.10
1411;DHT22;700;51.906;8.404;2022-12-18T11:12:52;6.30;93.70
1411;DHT22;700;51.906;8.404;2022-12-18T11:17:53;5.70;95.10
1411;DHT22;700;51.906;8.404;2022-12-18T11:23:04;5.80;96.40
1411;DHT22;700;51.906;8.404;2022-12-18T11:28:26;5.20;97.10
1411;DHT22;700;51.906;8.404;2022-12-18T11:33:27;5.30;98.60
1411;DHT22;700;51.906;8.404;2022-12-18T11:38:41;4.70;98.50
1411;DHT22;700;51.906;8.404;2022-12-18T11:43:56;4.30;99.20
1411;DHT22;700;51.906;8.404;2022-12-18T11:49:03;4.90;99.30
1411;DHT22;700;51.906;8.404;2022-12-18T11:54:14;4.80;98.30
1411;DHT22;700;51.906;8.404;2022-12-18T12:05:01;5.00;97.60
1411;DHT22;700;51.906;8.404;2022-12-18T12:10:25;4.60;97.80
1411;DHT22;700;51.906;8.404;2022-12-18T12:20:52;4.20;98.20
1411;DHT22;700;51.906;8.404;2022-12-18T12:26:08;4.40;96.80
1411;DHT22;700;51.906;8.404;2022-12-18T12:36:48;3.70;98.80
1411;DHT22;700;51.906;8.404;2022-12-18T12:41:52;3.60;98.70
1411;DHT22;700;51.906;8.404;2022-12-18T12:47:29;3.80;99.10
1411;DHT22;700;51.906;8.404;2022-12-18T12:52:35;3.30;99.90
1411;DHT22;700;51.906;8.404;2022-12-18T12:57:43;3.70;98.70
1411;DHT22;700;51.906;8.404;2022-12-18T13:08:23;3.50;99.60
1411;DHT22;700;51.906;8.404;2022-12-18T13:13:24;3.60;99.40
1411;DHT22;700;51.906;8.404;2022-12-18T13:18:27;3.20;99.90
1411;DHT22;700;51.906;8.404;2022-12-18T13:23:38;3.50;99.60
1411;DHT22;700;51.906;8.404;2022-12-18T13:33:46;3.10;99.90
1411;DHT22;700;51.906;8.404;2022-12-18T13:44:33;3.10;99.20
1411;DHT22;700;51.906;8.404;2022-12-18T13:49:39;3.10;99.90
1411;DHT22;700;51.906;8.404;2022-12-18T13:54:42;3.30;99.40
1411;DHT22;700;51.906;8.404;2022-12-18T13:59:47;3.20;99.10
1411;DHT22;700;51.906;8.404;2022-12-18T14:04:53;2.90;99.40
1411;DHT22;700;51.906;8.404;2022-12-18T14:09:58;2.70;99.90
1411;DHT22;700;51.906;8.404;2022-12-18T14:15:00;3.20;99.80
1411;DHT22;700;51.906;8.404;2022-12-18T14:20:00;3.00;99.50
1411;DHT22;700;51.906;8.404;2022-12-18T14:35:25;3.10;99.00
1411;DHT22;700;51.906;8.404;2022-12-18T14:40:26;3.00;98.80
1411;DHT22;700;51.906;8.404;2022-12-18T14:45:39;3.00;99.00
1411;DHT22;700;51.906;8.404;2022-12-18T14:50:42;3.00;99.10
1411;DHT22;700;51.906;8.404;2022-12-18T14:55:47;2.90;99.20
1411;DHT22;700;51.906;8.404;2022-12-18T15:00:48;2.80;99.40
1411;DHT22;700;51.906;8.404;2022-12-18T15:05:49;2.80;99.80
1411;DHT22;700;51.906;8.404;2022-12-18T15:10:49;2.70;99.90
1411;DHT22;700;51.906;8.404;2022-12-18T15:15:51;2.60;99.90
1411;DHT22;700;51.906;8.404;2022-12-18T15:26:07;2.40;99.90
1411;DHT22;700;51.906;8.404;2022-12-18T15:36:11;2.40;99.90
1411;DHT22;700;51.906;8.404;2022-12-18T15:41:17;2.20;99.90
1411;DHT22;700;51.906;8.404;2022-12-18T15:46:25;2.20;99.90
1411;DHT22;700;51.906;8.404;2022-12-18T15:51:31;2.20;99.90
1411;DHT22;700;51.906;8.404;2022-12-18T15:56:32;2.10;99.90
1411;DHT22;700;51.906;8.404;2022-12-18T16:01:52;2.00;99.90
1411;DHT22;700;51.906;8.404;2022-12-18T16:06:58;2.20;99.90
1411;DHT22;700;51.906;8.404;2022-12-18T16:11:58;1.90;99.90
1411;DHT22;700;51.906;8.404;2022-12-18T16:17:01;1.80;99.90
1411;DHT22;700;51.906;8.404;2022-12-18T16:22:04;2.00;99.90
1411;DHT22;700;51.906;8.404;2022-12-18T16:27:05;2.10;99.90
1411;DHT22;700;51.906;8.404;2022-12-18T16:32:05;2.10;99.90
1411;DHT22;700;51.906;8.404;2022-12-18T16:37:07;2.40;99.90
1411;DHT22;700;51.906;8.404;2022-12-18T16:47:17;2.00;99.90
1411;DHT22;700;51.906;8.404;2022-12-18T16:52:18;2.20;99.90
1411;DHT22;700;51.906;8.404;2022-12-18T16:57:20;2.50;99.90
1411;DHT22;700;51.906;8.404;2022-12-18T17:02:25;2.40;99.90
1411;DHT22;700;51.906;8.404;2022-12-18T17:07:26;2.10;99.90
1411;DHT22;700;51.906;8.404;2022-12-18T17:12:32;2.10;99.90
1411;DHT22;700;51.906;8.404;2022-12-18T17:17:32;2.10;99.90
1411;DHT22;700;51.906;8.404;2022-12-18T17:22:36;2.10;99.90
1411;DHT22;700;51.906;8.404;2022-12-18T17:27:39;2.10;99.90
1411;DHT22;700;51.906;8.404;2022-12-18T17:32:39;2.00;99.90
1411;DHT22;700;51.906;8.404;2022-12-18T17:37:40;1.90;99.90
1411;DHT22;700;51.906;8.404;2022-12-18T17:42:41;1.80;99.90
1411;DHT22;700;51.906;8.404;2022-12-18T17:47:41;2.10;99.90
1411;DHT22;700;51.906;8.404;2022-12-18T17:52:42;2.20;99.90
1411;DHT22;700;51.906;8.404;2022-12-18T17:57:42;2.00;99.90
1411;DHT22;700;51.906;8.404;2022-12-18T18:02:48;1.80;99.90
1411;DHT22;700;51.906;8.404;2022-12-18T18:07:51;1.90;99.90
1411;DHT22;700;51.906;8.404;2022-12-18T18:12:54;1.80;99.90
1411;DHT22;700;51.906;8.404;2022-12-18T18:18:16;2.00;99.90
1411;DHT22;700;51.906;8.404;2022-12-18T18:23:19;1.80;99.90
1411;DHT22;700;51.906;8.404;2022-12-18T18:28:25;1.60;99.90
1411;DHT22;700;51.906;8.404;2022-12-18T18:33:25;1.40;99.90
1411;DHT22;700;51.906;8.404;2022-12-18T18:38:27;1.60;99.90
1411;DHT22;700;51.906;8.404;2022-12-18T18:43:30;1.40;99.90
1411;DHT22;700;51.906;8.404;2022-12-18T18:48:34;1.20;99.90
1411;DHT22;700;51.906;8.404;2022-12-18T18:53:38;1.00;99.90
1411;DHT22;700;51.906;8.404;2022-12-18T18:58:41;1.00;99.90
1411;DHT22;700;51.906;8.404;2022-12-18T19:03:43;1.00;99.90
1411;DHT22;700;51.906;8.404;2022-12-18T19:08:44;1.10;99.90
1411;DHT22;700;51.906;8.404;2022-12-18T19:13:45;1.10;99.90
1411;DHT22;700;51.906;8.404;2022-12-18T19:18:48;0.90;99.90
1411;DHT22;700;51.906;8.404;2022-12-18T19:23:52;1.00;99.90
1411;DHT22;700;51.906;8.404;2022-12-18T19:28:58;1.20;99.90
1411;DHT22;700;51.906;8.404;2022-12-18T19:33:59;0.90;99.90
1411;DHT22;700;51.906;8.404;2022-12-18T19:39:07;1.00;99.90
1411;DHT22;700;51.906;8.404;2022-12-18T19:44:10;0.70;99.90
1411;DHT22;700;51.906;8.404;2022-12-18T19:49:13;0.60;99.90
1411;DHT22;700;51.906;8.404;2022-12-18T19:54:14;0.50;99.90
1411;DHT22;700;51.906;8.404;2022-12-18T19:59:17;0.80;99.90
1411;DHT22;700;51.906;8.404;2022-12-18T20:04:20;0.70;99.90
1411;DHT22;700;51.906;8.404;2022-12-18T20:09:21;1.10;99.90
1411;DHT22;700;51.906;8.404;2022-12-18T20:14:26;0.90;99.90
1411;DHT22;700;51.906;8.404;2022-12-18T20:19:28;0.80;99.90
1411;DHT22;700;51.906;8.404;2022-12-18T20:24:31;1.20;99.90
1411;DHT22;700;51.906;8.404;2022-12-18T20:29:32;1.00;99.90
1411;DHT22;700;51.906;8.404;2022-12-18T20:34:35;1.00;99.90
1411;DHT22;700;51.906;8.404;2022-12-18T20:39:38;1.20;99.90
1411;DHT22;700;51.906;8.404;2022-12-18T20:44:39;1.30;99.90
1411;DHT22;700;51.906;8.404;2022-12-18T20:49:39;1.40;99.90
1411;DHT22;700;51.906;8.404;2022-12-18T20:54:40;1.50;99.90
1411;DHT22;700;51.906;8.404;2022-12-18T20:59:43;1.30;99.90
1411;DHT22;700;51.906;8.404;2022-12-18T21:04:47;1.20;99.90
1411;DHT22;700;51.906;8.404;2022-12-18T21:09:48;1.30;99.90
1411;DHT22;700;51.906;8.404;2022-12-18T21:14:51;1.10;99.90
1411;DHT22;700;51.906;8.404;2022-12-18T21:19:52;1.30;99.90
1411;DHT22;700;51.906;8.404;2022-12-18T21:24:57;1.40;99.90
1411;DHT22;700;51.906;8.404;2022-12-18T21:29:58;1.40;99.90
1411;DHT22;700;51.906;8.404;2022-12-18T21:35:01;1.60;99.90
1411;DHT22;700;51.906;8.404;2022-12-18T21:40:02;1.40;99.90
1411;DHT22;700;51.906;8.404;2022-12-18T21:45:06;1.70;99.90
1411;DHT22;700;51.906;8.404;2022-12-18T21:50:09;1.70;99.90
1411;DHT22;700;51.906;8.404;2022-12-18T21:55:10;1.80;99.90
1411;DHT22;700;51.906;8.404;2022-12-18T22:00:13;1.90;99.90
1411;DHT22;700;51.906;8.404;2022-12-18T22:05:14;1.90;99.90
1411;DHT22;700;51.906;8.404;2022-12-18T22:10:15;1.90;99.90
1411;DHT22;700;51.906;8.404;2022-12-18T22:15:15;2.00;99.90
1411;DHT22;700;51.906;8.404;2022-12-18T22:20:17;1.80;99.90
1411;DHT22;700;51.906;8.404;2022-12-18T22:25:18;2.10;99.90
1411;DHT22;700;51.906;8.404;2022-12-18T22:30:18;2.00;99.90
1411;DHT22;700;51.906;8.404;2022-12-18T22:35:19;2.10;99.90
1411;DHT22;700;51.906;8.404;2022-12-18T22:40:27;2.00;99.90
1411;DHT22;700;51.906;8.404;2022-12-18T22:45:28;1.70;99.90
1411;DHT22;700;51.906;8.404;2022-12-18T22:50:31;2.20;99.90
1411;DHT22;700;51.906;8.404;2022-12-18T22:55:33;1.90;99.90
1411;DHT22;700;51.906;8.404;2022-12-18T23:00:33;2.10;99.90
1411;DHT22;700;51.906;8.404;2022-12-18T23:05:34;2.00;99.90
1411;DHT22;700;51.906;8.404;2022-12-18T23:10:38;2.10;99.90
1411;DHT22;700;51.906;8.404;2022-12-18T23:15:41;1.90;99.90
1411;DHT22;700;51.906;8.404;2022-12-18T23:20:42;1.80;99.90
1411;DHT22;700;51.906;8.404;2022-12-18T23:25:43;2.20;99.90
1411;DHT22;700;51.906;8.404;2022-12-18T23:30:43;2.50;99.90
1411;DHT22;700;51.906;8.404;2022-12-18T23:35:44;2.40;99.90
1411;DHT22;700;51.906;8.404;2022-12-18T23:40:44;2.00;99.90
1411;DHT22;700;51.906;8.404;2022-12-18T23:45:47;2.40;99.90
1411;DHT22;700;51.906;8.404;2022-12-18T23:50:48;2.10;99.90
1411;DHT22;700;51.906;8.404;2022-12-18T23:55:49;2.30;99.90
